Time;durP1;ratioP1;P1;durP2;ratioP2;P2;SDS_P1;SDS_P2;PMS_P1;PMS_P2;Temp;Humidity;BMP_temperature;BMP_pressure;BME280_temperature;BME280_humidity;BME280_pressure;Samples;Min_cycle;Max_cycle;Signal;HPM_P1;HPM_P2
2021/10/30 00:01:31;;;;;;;3.85;3.55;;;17.10;90.90;;;;;;4224321;28;20047;-59
2021/10/30 00:03:53;;;;;;;3.83;3.40;;;17.10;91.30;;;;;;4207555;28;20498;-59
2021/10/30 00:06:15;;;;;;;4.03;3.75;;;17.10;90.90;;;;;;4207261;28;20063;-58
2021/10/30 00:08:38;;;;;;;3.90;3.67;;;17.10;90.90;;;;;;4207204;28;20048;-59
2021/10/30 00:11:02;;;;;;;4.28;3.88;;;17.10;90.90;;;;;;4225520;27;20409;-59
2021/10/30 00:13:24;;;;;;;3.72;3.45;;;17.10;90.80;;;;;;4241136;27;20420;-59
2021/10/30 00:15:46;;;;;;;4.80;4.05;;;17.10;90.90;;;;;;4241191;27;20557;-59
2021/10/30 00:18:09;;;;;;;4.63;4.22;;;17.00;90.90;;;;;;4244303;27;20100;-59
2021/10/30 00:20:31;;;;;;;3.97;3.65;;;17.10;91.00;;;;;;4244464;27;20199;-59
2021/10/30 00:22:54;;;;;;;3.55;3.35;;;17.00;90.90;;;;;;4244001;27;20550;-59
2021/10/30 00:25:18;;;;;;;4.38;3.97;;;17.00;90.90;;;;;;4238372;27;20460;-59
2021/10/30 00:27:41;;;;;;;4.13;3.75;;;17.00;90.90;;;;;;4226833;28;20070;-59
2021/10/30 00:30:05;;;;;;;3.92;3.60;;;17.00;90.90;;;;;;4227299;27;20448;-59
2021/10/30 00:32:27;;;;;;;4.13;3.65;;;17.10;90.90;;;;;;4226825;27;20051;-58
2021/10/30 00:34:50;;;;;;;4.35;3.95;;;17.00;90.90;;;;;;4226568;27;20081;-58
2021/10/30 00:37:12;;;;;;;4.20;3.90;;;17.00;90.90;;;;;;4226749;27;20054;-58
2021/10/30 00:39:34;;;;;;;4.68;4.28;;;17.00;90.90;;;;;;4226740;27;20047;-58
2021/10/30 00:41:58;;;;;;;6.15;3.75;;;17.00;90.90;;;;;;4226961;28;20096;-58
2021/10/30 00:44:21;;;;;;;4.65;4.07;;;17.00;90.90;;;;;;4226968;27;20073;-58
2021/10/30 00:46:45;;;;;;;4.30;3.90;;;17.00;90.90;;;;;;4226933;28;20051;-59
2021/10/30 00:49:07;;;;;;;5.00;4.15;;;17.00;90.90;;;;;;4226445;27;20047;-59
2021/10/30 00:51:33;;;;;;;4.30;3.83;;;17.00;91.00;;;;;;4210205;28;20048;-59
2021/10/30 00:53:56;;;;;;;3.80;3.50;;;17.00;91.00;;;;;;4209809;28;20044;-59
2021/10/30 00:56:19;;;;;;;4.50;4.07;;;16.90;91.00;;;;;;4209708;28;20051;-58
2021/10/30 00:58:46;;;;;;;3.85;3.50;;;17.00;90.90;;;;;;4209750;28;20345;-58
2021/10/30 01:01:08;;;;;;;4.35;4.00;;;16.90;90.90;;;;;;4209888;28;20064;-59
2021/10/30 01:03:32;;;;;;;3.92;3.63;;;16.90;91.00;;;;;;4209589;28;20495;-58
2021/10/30 01:05:54;;;;;;;3.58;3.28;;;16.90;91.00;;;;;;4226261;27;20048;-58
2021/10/30 01:08:18;;;;;;;4.43;4.00;;;17.00;91.10;;;;;;4225980;27;20413;-58
2021/10/30 01:10:41;;;;;;;4.30;3.70;;;17.00;91.10;;;;;;4225946;28;20066;-59
2021/10/30 01:13:03;;;;;;;3.97;3.67;;;16.90;91.10;;;;;;4226141;27;20047;-59
2021/10/30 01:15:26;;;;;;;4.25;3.95;;;17.00;91.10;;;;;;4226323;27;20059;-59
2021/10/30 01:17:48;;;;;;;3.97;3.58;;;16.90;91.00;;;;;;4226236;27;20493;-58
2021/10/30 01:20:20;;;;;;;4.75;4.35;;;16.90;91.10;;;;;;4226341;27;20085;-59
2021/10/30 01:22:42;;;;;;;3.92;3.58;;;16.90;91.00;;;;;;4209146;28;20051;-58
2021/10/30 01:25:05;;;;;;;3.78;3.47;;;16.90;91.20;;;;;;4224807;27;20047;-59
2021/10/30 01:27:28;;;;;;;3.75;3.55;;;16.90;91.20;;;;;;4226007;27;20083;-59
2021/10/30 01:29:52;;;;;;;4.07;3.80;;;16.90;91.20;;;;;;4226258;27;20089;-59
2021/10/30 01:32:15;;;;;;;3.97;3.65;;;16.90;91.60;;;;;;4225933;27;20477;-59
2021/10/30 01:34:37;;;;;;;3.80;3.53;;;16.90;91.10;;;;;;4225975;27;20134;-59
2021/10/30 01:37:01;;;;;;;3.58;3.28;;;16.90;91.10;;;;;;4225865;27;20059;-59
2021/10/30 01:39:25;;;;;;;3.90;3.63;;;16.90;91.10;;;;;;4225920;27;20528;-59
2021/10/30 01:41:47;;;;;;;3.97;3.20;;;16.90;91.10;;;;;;4209306;28;20125;-59
2021/10/30 01:44:09;;;;;;;3.17;2.88;;;16.90;91.10;;;;;;4208961;28;20056;-59
2021/10/30 01:46:32;;;;;;;3.92;3.58;;;16.90;91.10;;;;;;4207294;28;20477;-56
2021/10/30 01:48:54;;;;;;;4.07;3.78;;;16.90;91.10;;;;;;4208472;28;20105;-59
2021/10/30 01:51:17;;;;;;;3.22;3.03;;;16.90;91.10;;;;;;4208857;28;20043;-59
2021/10/30 01:53:41;;;;;;;4.05;3.75;;;16.90;91.10;;;;;;4208614;28;20486;-59
2021/10/30 01:56:04;;;;;;;3.47;3.20;;;16.90;91.20;;;;;;4208930;28;20501;-59
2021/10/30 01:58:27;;;;;;;5.15;3.53;;;16.90;91.10;;;;;;4225842;27;20486;-59
2021/10/30 02:00:51;;;;;;;3.80;3.47;;;16.90;91.00;;;;;;4225479;27;20052;-59
2021/10/30 02:03:17;;;;;;;4.45;3.63;;;16.90;91.00;;;;;;4225229;27;20171;-59
2021/10/30 02:05:39;;;;;;;4.70;3.60;;;16.90;91.00;;;;;;4225265;28;20074;-59
2021/10/30 02:08:01;;;;;;;4.18;3.78;;;16.90;91.10;;;;;;4212444;28;20070;-60
2021/10/30 02:10:25;;;;;;;4.63;3.65;;;16.90;91.00;;;;;;4225412;27;20051;-59
2021/10/30 02:12:47;;;;;;;3.25;2.95;;;16.90;91.00;;;;;;4225420;28;20039;-59
2021/10/30 02:15:10;;;;;;;4.22;3.25;;;16.90;90.90;;;;;;4225302;27;20051;-59
2021/10/30 02:17:33;;;;;;;4.97;3.00;;;16.90;90.90;;;;;;4225248;27;20100;-59
2021/10/30 02:19:55;;;;;;;3.60;3.30;;;16.90;91.00;;;;;;4225244;27;20449;-59
2021/10/30 02:22:17;;;;;;;3.95;3.47;;;16.90;91.00;;;;;;4223819;28;20120;-59
2021/10/30 02:24:40;;;;;;;3.63;3.30;;;16.80;90.90;;;;;;4225368;27;20128;-58
2021/10/30 02:27:04;;;;;;;3.97;3.60;;;16.80;90.90;;;;;;4225275;27;20046;-58
2021/10/30 02:29:26;;;;;;;4.10;3.80;;;16.80;90.90;;;;;;4224994;27;20078;-59
2021/10/30 02:31:48;;;;;;;4.07;3.03;;;16.80;91.00;;;;;;4225147;27;20108;-58
2021/10/30 02:34:10;;;;;;;5.70;3.72;;;16.80;90.90;;;;;;4225359;28;20043;-59
2021/10/30 02:36:33;;;;;;;4.18;3.72;;;16.80;91.00;;;;;;4225253;28;20140;-59
2021/10/30 02:38:54;;;;;;;4.07;3.47;;;16.80;90.90;;;;;;4224891;28;20054;-59
2021/10/30 02:41:17;;;;;;;3.33;3.13;;;16.80;91.00;;;;;;4225028;28;20063;-59
2021/10/30 02:43:41;;;;;;;3.80;3.60;;;16.80;91.00;;;;;;4224551;27;20664;-59
2021/10/30 02:46:03;;;;;;;3.55;3.30;;;16.80;90.90;;;;;;4224017;27;20130;-58
2021/10/30 02:48:26;;;;;;;3.65;3.35;;;16.80;91.10;;;;;;4224933;28;20055;-59
2021/10/30 02:50:49;;;;;;;4.10;3.72;;;16.80;91.00;;;;;;4224968;28;20056;-59
2021/10/30 02:53:12;;;;;;;4.50;3.42;;;16.80;91.40;;;;;;4224768;28;20048;-59
2021/10/30 02:55:33;;;;;;;3.58;3.28;;;16.80;91.00;;;;;;4224842;28;20093;-59
2021/10/30 02:57:55;;;;;;;3.50;3.20;;;16.80;91.00;;;;;;4224253;27;20494;-59
2021/10/30 03:00:19;;;;;;;4.07;3.78;;;16.80;90.90;;;;;;4224181;27;20097;-59
2021/10/30 03:02:41;;;;;;;4.10;3.60;;;16.80;90.90;;;;;;4224901;27;20346;-59
2021/10/30 03:05:03;;;;;;;3.85;3.42;;;16.70;90.80;;;;;;4224122;27;20065;-59
2021/10/30 03:07:28;;;;;;;3.90;3.60;;;16.80;90.80;;;;;;4224038;28;20054;-59
2021/10/30 03:09:51;;;;;;;4.70;3.63;;;16.80;91.20;;;;;;4223064;28;20135;-59
2021/10/30 03:12:13;;;;;;;3.70;3.40;;;16.80;90.80;;;;;;4192684;28;20557;-59
2021/10/30 03:14:35;;;;;;;5.20;3.35;;;16.70;90.80;;;;;;4191259;28;20125;-59
2021/10/30 03:17:01;;;;;;;4.30;3.45;;;16.70;90.80;;;;;;4207620;28;20414;-59
2021/10/30 03:19:23;;;;;;;3.45;3.15;;;16.80;90.80;;;;;;4208704;28;20541;-59
2021/10/30 03:21:45;;;;;;;3.75;3.45;;;16.70;90.90;;;;;;4224475;28;20047;-58
2021/10/30 03:24:10;;;;;;;5.20;3.45;;;16.70;90.90;;;;;;4224397;27;20064;-59
2021/10/30 03:26:32;;;;;;;3.85;3.55;;;16.70;91.10;;;;;;4224324;27;20047;-59
2021/10/30 03:28:55;;;;;;;3.60;3.38;;;16.70;91.00;;;;;;4224492;27;20497;-59
2021/10/30 03:31:17;;;;;;;3.17;3.05;;;16.70;90.80;;;;;;4224585;27;20130;-59
2021/10/30 03:33:40;;;;;;;3.80;3.50;;;16.70;91.00;;;;;;4207842;28;20555;-58
2021/10/30 03:36:02;;;;;;;3.78;3.47;;;16.60;90.70;;;;;;4207927;28;20055;-59
2021/10/30 03:38:25;;;;;;;4.20;3.78;;;16.70;91.00;;;;;;4207510;28;20575;-59
2021/10/30 03:40:47;;;;;;;4.47;4.15;;;16.70;91.10;;;;;;4222167;28;20508;-59
2021/10/30 03:43:11;;;;;;;3.78;3.53;;;16.70;91.20;;;;;;4224947;28;20071;-59
2021/10/30 03:45:34;;;;;;;4.00;3.80;;;16.60;91.00;;;;;;4224605;28;20048;-59
2021/10/30 03:47:56;;;;;;;4.20;3.78;;;16.70;91.10;;;;;;4224306;27;20413;-60
2021/10/30 03:50:20;;;;;;;5.03;3.80;;;16.70;91.00;;;;;;4224152;27;20050;-58
2021/10/30 03:52:41;;;;;;;4.07;3.72;;;16.70;91.10;;;;;;4227438;27;20066;-59
2021/10/30 03:55:04;;;;;;;4.00;3.80;;;16.60;91.00;;;;;;4227759;27;20047;-59
2021/10/30 03:57:28;;;;;;;3.92;3.63;;;16.60;91.00;;;;;;4227711;27;20078;-59
2021/10/30 03:59:49;;;;;;;4.53;4.20;;;16.60;91.00;;;;;;4227094;27;20081;-59
2021/10/30 04:02:12;;;;;;;3.85;3.65;;;16.60;91.10;;;;;;4212145;27;20043;-59
2021/10/30 04:04:34;;;;;;;4.28;3.88;;;16.60;91.00;;;;;;4210658;28;20075;-59
2021/10/30 04:06:58;;;;;;;4.15;3.85;;;16.60;91.00;;;;;;4226096;27;20116;-59
2021/10/30 04:09:21;;;;;;;4.70;4.30;;;16.60;91.00;;;;;;4227038;27;20043;-59
2021/10/30 04:11:44;;;;;;;4.22;3.85;;;16.60;91.00;;;;;;4227301;27;20139;-59
2021/10/30 04:14:06;;;;;;;4.40;4.07;;;16.60;90.80;;;;;;4227246;27;20413;-59
2021/10/30 04:16:28;;;;;;;4.70;4.30;;;16.60;90.90;;;;;;4227072;27;20116;-62
2021/10/30 04:18:50;;;;;;;5.40;4.90;;;16.60;90.90;;;;;;4210411;28;20767;-59
2021/10/30 04:21:13;;;;;;;6.60;5.25;;;16.60;91.00;;;;;;4208573;28;20505;-57
2021/10/30 04:23:37;;;;;;;5.50;5.00;;;16.60;91.00;;;;;;4210257;28;20048;-59
2021/10/30 04:25:59;;;;;;;5.80;5.13;;;16.50;90.80;;;;;;4210615;28;20124;-59
2021/10/30 04:28:22;;;;;;;6.75;6.07;;;16.60;91.00;;;;;;4210791;28;20093;-59
2021/10/30 04:30:44;;;;;;;7.53;5.97;;;16.60;91.40;;;;;;4207826;28;20036;-59
2021/10/30 04:33:07;;;;;;;7.95;6.57;;;16.60;91.10;;;;;;4210197;28;20496;-59
2021/10/30 04:35:29;;;;;;;8.82;6.65;;;16.50;91.00;;;;;;4210394;27;20134;-59
2021/10/30 04:37:51;;;;;;;8.02;6.72;;;16.50;90.80;;;;;;4209976;27;20624;-59
2021/10/30 04:40:15;;;;;;;8.50;7.03;;;16.50;90.90;;;;;;4210109;27;20075;-59
2021/10/30 04:42:37;;;;;;;7.88;6.50;;;16.50;90.80;;;;;;4209740;27;20075;-59
2021/10/30 04:44:59;;;;;;;9.70;7.68;;;16.50;90.80;;;;;;4210160;28;20410;-59
2021/10/30 04:47:21;;;;;;;8.40;7.53;;;16.50;90.80;;;;;;4209865;27;20044;-59
2021/10/30 04:49:45;;;;;;;9.80;7.53;;;16.50;91.00;;;;;;4210096;27;20528;-59
2021/10/30 04:52:08;;;;;;;8.95;7.50;;;16.50;90.80;;;;;;4208387;28;20040;-59
2021/10/30 04:54:30;;;;;;;8.13;7.20;;;16.50;91.00;;;;;;4193206;28;20056;-59
2021/10/30 04:56:54;;;;;;;9.85;8.07;;;16.50;90.80;;;;;;4209883;28;20097;-59
2021/10/30 04:59:16;;;;;;;8.45;7.63;;;16.50;90.80;;;;;;4210147;28;20127;-58
2021/10/30 05:01:38;;;;;;;9.32;8.43;;;16.50;90.90;;;;;;4209888;28;20070;-59
2021/10/30 05:04:00;;;;;;;8.25;7.45;;;16.50;90.70;;;;;;4209462;28;20056;-59
2021/10/30 05:06:22;;;;;;;9.50;8.00;;;16.50;90.90;;;;;;4209914;28;20102;-59
2021/10/30 05:08:44;;;;;;;9.02;8.15;;;16.50;90.90;;;;;;4223693;27;20481;-58
2021/10/30 05:11:07;;;;;;;10.25;8.20;;;16.50;91.30;;;;;;4226469;27;20057;-58
2021/10/30 05:13:31;;;;;;;9.07;8.27;;;16.60;91.60;;;;;;4226698;27;20116;-58
2021/10/30 05:15:53;;;;;;;9.32;8.35;;;16.60;91.20;;;;;;4225623;27;20058;-58
2021/10/30 05:18:15;;;;;;;9.63;7.68;;;16.60;91.20;;;;;;4226289;27;20043;-58
2021/10/30 05:20:37;;;;;;;9.80;7.97;;;16.60;91.30;;;;;;4226034;27;20139;-58
2021/10/30 05:22:59;;;;;;;8.57;7.68;;;16.60;91.30;;;;;;4226367;27;20048;-59
2021/10/30 05:25:21;;;;;;;9.50;8.45;;;16.60;91.30;;;;;;4225471;27;20519;-58
2021/10/30 05:27:43;;;;;;;8.43;7.60;;;16.60;91.30;;;;;;4226423;28;20112;-58
2021/10/30 05:30:07;;;;;;;9.60;8.60;;;16.50;91.20;;;;;;4225816;27;20486;-58
2021/10/30 05:32:29;;;;;;;9.57;8.57;;;16.50;91.10;;;;;;4226108;27;20097;-59
2021/10/30 05:35:18;;;;;;;8.23;7.53;;;16.50;91.20;;;;;;4199876;27;20154;-59
2021/10/30 05:38:00;;;;;;;9.32;8.30;;;16.50;91.30;;;;;;4225632;27;20051;-59
2021/10/30 05:40:22;;;;;;;10.32;8.68;;;16.50;91.30;;;;;;4209052;27;20055;-58
2021/10/30 05:42:45;;;;;;;9.27;7.85;;;16.50;91.40;;;;;;4214370;27;20051;-59
2021/10/30 05:45:09;;;;;;;10.20;8.18;;;16.50;91.30;;;;;;4209337;28;20079;-59
2021/10/30 05:47:32;;;;;;;11.15;8.38;;;16.50;91.30;;;;;;4209282;27;20044;-59
2021/10/30 05:49:55;;;;;;;9.45;8.25;;;16.50;91.30;;;;;;4222547;27;20047;-59
2021/10/30 05:52:17;;;;;;;8.65;7.80;;;16.50;91.20;;;;;;4225985;27;20055;-58
2021/10/30 05:54:39;;;;;;;8.38;7.68;;;16.50;91.20;;;;;;4208878;28;20039;-59
2021/10/30 05:57:02;;;;;;;8.38;7.57;;;16.50;91.10;;;;;;4209125;28;20453;-58
2021/10/30 05:59:24;;;;;;;8.57;7.68;;;16.50;91.10;;;;;;4212854;27;20048;-58
2021/10/30 06:01:47;;;;;;;8.63;7.82;;;16.50;91.10;;;;;;4191991;28;20048;-59
2021/10/30 06:04:09;;;;;;;9.27;7.47;;;16.40;91.10;;;;;;4193177;28;20128;-59
2021/10/30 06:06:31;;;;;;;7.32;6.72;;;16.40;91.40;;;;;;4208805;28;20144;-58
2021/10/30 06:08:53;;;;;;;8.23;7.43;;;16.40;91.10;;;;;;4208732;28;20043;-59
2021/10/30 06:11:16;;;;;;;7.18;6.47;;;16.40;91.00;;;;;;4209099;28;20047;-59
2021/10/30 06:13:38;;;;;;;11.93;6.75;;;16.40;91.10;;;;;;4208327;28;20048;-58
2021/10/30 06:16:00;;;;;;;8.05;6.72;;;16.40;91.10;;;;;;4208460;28;20067;-58
2021/10/30 06:18:24;;;;;;;7.53;6.82;;;16.40;91.00;;;;;;4208816;28;20078;-59
2021/10/30 06:20:46;;;;;;;7.03;6.30;;;16.40;90.90;;;;;;4208715;28;20055;-59
2021/10/30 06:23:08;;;;;;;6.45;5.95;;;16.40;91.10;;;;;;4208230;28;20086;-59
2021/10/30 06:25:31;;;;;;;6.10;5.60;;;16.40;90.90;;;;;;4208514;28;20064;-61
2021/10/30 06:27:55;;;;;;;6.40;5.82;;;16.30;90.70;;;;;;4208401;28;20490;-58
2021/10/30 06:30:17;;;;;;;6.63;6.03;;;16.30;90.70;;;;;;4191819;28;20055;-59
2021/10/30 06:32:39;;;;;;;7.80;5.88;;;16.30;90.80;;;;;;4204132;28;20498;-59
2021/10/30 06:35:02;;;;;;;6.20;5.60;;;16.30;90.90;;;;;;4208278;28;20115;-58
2021/10/30 06:37:25;;;;;;;6.65;6.07;;;16.30;90.70;;;;;;4207754;28;20059;-58
2021/10/30 06:39:46;;;;;;;6.10;5.50;;;16.30;90.60;;;;;;4208315;27;20062;-58
2021/10/30 06:42:09;;;;;;;6.78;5.40;;;16.30;90.70;;;;;;4191557;28;20413;-58
2021/10/30 06:44:31;;;;;;;6.15;5.63;;;16.30;90.90;;;;;;4196062;28;20500;-59
2021/10/30 06:46:54;;;;;;;5.32;4.93;;;16.30;90.80;;;;;;4208271;28;20052;-59
2021/10/30 06:49:16;;;;;;;5.82;5.22;;;16.30;90.60;;;;;;4223071;27;20502;-58
2021/10/30 06:51:40;;;;;;;5.72;5.03;;;16.30;90.50;;;;;;4224885;27;20039;-59
2021/10/30 06:54:02;;;;;;;5.50;5.13;;;16.30;90.20;;;;;;4224936;27;20062;-59
2021/10/30 06:56:24;;;;;;;5.20;4.65;;;16.30;90.70;;;;;;4224674;27;20059;-58
2021/10/30 06:58:47;;;;;;;5.03;4.60;;;16.30;90.60;;;;;;4224755;27;20126;-59
2021/10/30 07:01:09;;;;;;;7.43;5.07;;;16.20;90.30;;;;;;4224702;28;20047;-59
2021/10/30 07:03:31;;;;;;;5.57;5.18;;;16.30;90.20;;;;;;4225183;28;20061;-59
2021/10/30 07:05:53;;;;;;;5.55;5.05;;;16.20;90.40;;;;;;4224823;28;20051;-58
2021/10/30 07:08:18;;;;;;;6.22;4.93;;;16.20;90.20;;;;;;4223426;27;20048;-58
2021/10/30 07:10:41;;;;;;;5.28;4.78;;;16.20;90.30;;;;;;4224024;27;20135;-59
2021/10/30 07:13:03;;;;;;;4.93;4.30;;;16.20;90.20;;;;;;4224849;27;20035;-60
2021/10/30 07:15:25;;;;;;;5.40;4.63;;;16.20;90.20;;;;;;4224766;27;20075;-59
2021/10/30 07:17:47;;;;;;;5.25;4.75;;;16.20;90.80;;;;;;4224750;27;20142;-59
2021/10/30 07:20:10;;;;;;;5.05;4.40;;;16.20;90.40;;;;;;4224571;27;20051;-59
2021/10/30 07:22:39;;;;;;;5.13;4.70;;;16.20;90.20;;;;;;4224608;27;20052;-59
2021/10/30 07:25:02;;;;;;;6.03;4.50;;;16.20;90.70;;;;;;4224442;27;20043;-58
2021/10/30 07:27:24;;;;;;;4.70;4.40;;;16.20;90.20;;;;;;4228142;27;20051;-58
2021/10/30 07:29:48;;;;;;;5.88;4.72;;;16.20;90.50;;;;;;4228384;27;20062;-61
2021/10/30 07:32:10;;;;;;;6.68;5.25;;;16.20;90.50;;;;;;4227915;27;20498;-59
2021/10/30 07:34:32;;;;;;;5.35;4.85;;;16.20;90.00;;;;;;4227854;27;20055;-61
2021/10/30 07:36:55;;;;;;;5.07;4.68;;;16.20;90.20;;;;;;4227871;27;20414;-60
2021/10/30 07:39:17;;;;;;;8.18;5.00;;;16.20;89.70;;;;;;4226269;28;20056;-61
2021/10/30 07:41:41;;;;;;;4.90;4.43;;;16.20;90.00;;;;;;4227438;27;20414;-59
2021/10/30 07:44:04;;;;;;;5.30;4.80;;;16.20;90.50;;;;;;4227837;27;20055;-59
2021/10/30 07:46:26;;;;;;;5.65;5.03;;;16.20;90.10;;;;;;4228075;27;20134;-59
2021/10/30 07:48:48;;;;;;;4.43;3.95;;;16.10;90.30;;;;;;4227740;27;20056;-60
2021/10/30 07:51:10;;;;;;;5.90;4.88;;;16.20;90.10;;;;;;4227805;27;20047;-59
2021/10/30 07:53:32;;;;;;;5.40;4.50;;;16.20;90.50;;;;;;4228134;27;20515;-59
2021/10/30 07:55:54;;;;;;;6.15;4.57;;;16.20;90.20;;;;;;4227801;27;20508;-59
2021/10/30 07:58:18;;;;;;;5.72;4.55;;;16.20;90.20;;;;;;4227947;27;20055;-59
2021/10/30 08:00:39;;;;;;;6.28;4.65;;;16.20;90.40;;;;;;4227244;27;20429;-60
2021/10/30 08:03:02;;;;;;;5.68;4.97;;;16.10;90.20;;;;;;4227576;27;20104;-59
2021/10/30 08:05:24;;;;;;;6.00;5.22;;;16.20;90.20;;;;;;4227489;27;20511;-60
2021/10/30 08:07:46;;;;;;;4.70;4.30;;;16.20;90.30;;;;;;4227566;27;20093;-60
2021/10/30 08:10:11;;;;;;;4.50;4.10;;;16.20;90.20;;;;;;4227486;27;20062;-59
2021/10/30 08:12:34;;;;;;;6.57;4.75;;;16.20;90.10;;;;;;4227671;27;20096;-60
2021/10/30 08:14:57;;;;;;;4.72;4.32;;;16.20;90.10;;;;;;4227242;27;20044;-59
2021/10/30 08:17:19;;;;;;;4.80;4.35;;;16.10;90.00;;;;;;4226768;27;20069;-59
2021/10/30 08:19:41;;;;;;;5.72;4.28;;;16.20;90.30;;;;;;4226853;27;20120;-59
2021/10/30 08:22:04;;;;;;;6.55;4.47;;;16.10;90.90;;;;;;4227561;27;20047;-59
2021/10/30 08:24:26;;;;;;;6.60;4.97;;;16.10;90.40;;;;;;4227142;27;20093;-59
2021/10/30 08:26:47;;;;;;;6.80;5.25;;;16.10;90.60;;;;;;4227039;27;20452;-60
2021/10/30 08:29:10;;;;;;;10.20;5.60;;;16.10;90.60;;;;;;4227228;27;20405;-59
2021/10/30 08:31:34;;;;;;;7.70;5.25;;;16.10;90.50;;;;;;4227302;28;20124;-59
2021/10/30 08:33:57;;;;;;;5.30;4.82;;;16.10;90.60;;;;;;4226821;27;20044;-59
2021/10/30 08:36:19;;;;;;;6.70;4.78;;;16.10;90.90;;;;;;4209988;28;20040;-59
2021/10/30 08:38:42;;;;;;;5.68;5.18;;;16.10;90.50;;;;;;4209633;28;20064;-58
2021/10/30 08:41:05;;;;;;;5.15;4.63;;;16.10;90.70;;;;;;4210058;28;20052;-59
2021/10/30 08:43:27;;;;;;;5.75;4.38;;;16.10;90.80;;;;;;4209968;28;20052;-60
2021/10/30 08:45:50;;;;;;;4.90;4.25;;;16.10;90.60;;;;;;4208699;28;20516;-59
2021/10/30 08:48:14;;;;;;;5.82;4.97;;;16.10;90.70;;;;;;4209554;28;20064;-59
2021/10/30 08:50:36;;;;;;;4.97;4.47;;;16.10;90.50;;;;;;4216067;27;20043;-59
2021/10/30 08:53:00;;;;;;;6.05;4.68;;;16.10;90.80;;;;;;4210307;28;20168;-59
2021/10/30 08:55:22;;;;;;;6.45;4.57;;;16.10;90.90;;;;;;4210023;28;20070;-59
2021/10/30 08:57:45;;;;;;;6.32;4.65;;;16.10;90.80;;;;;;4209923;28;20072;-59
2021/10/30 09:00:19;;;;;;;5.13;4.72;;;16.10;91.00;;;;;;4209960;28;20071;-59
2021/10/30 09:02:41;;;;;;;5.60;4.18;;;16.10;90.90;;;;;;4216223;27;20104;-59
2021/10/30 09:05:13;;;;;;;5.07;4.57;;;16.10;90.80;;;;;;4226706;27;20516;-58
2021/10/30 09:07:35;;;;;;;4.57;4.20;;;16.20;91.40;;;;;;4226433;27;20070;-59
2021/10/30 09:09:58;;;;;;;4.13;3.72;;;16.30;91.40;;;;;;4225989;27;20047;-58
2021/10/30 09:12:25;;;;;;;3.90;3.60;;;16.50;91.30;;;;;;4226757;27;20055;-59
2021/10/30 09:14:47;;;;;;;4.40;3.70;;;16.70;90.90;;;;;;4226607;27;20490;-59
2021/10/30 09:17:12;;;;;;;4.63;4.22;;;16.80;90.60;;;;;;4226549;27;20074;-59
2021/10/30 09:19:34;;;;;;;5.85;4.75;;;17.00;90.40;;;;;;4226425;27;20421;-59
2021/10/30 09:22:04;;;;;;;4.38;3.78;;;17.10;90.10;;;;;;4224870;27;20055;-59
2021/10/30 09:24:27;;;;;;;4.45;4.10;;;17.20;89.20;;;;;;4225942;28;20417;-59
2021/10/30 09:26:53;;;;;;;4.47;4.07;;;17.40;88.80;;;;;;4226054;27;20597;-59
2021/10/30 09:29:16;;;;;;;4.75;4.30;;;17.50;88.10;;;;;;4226424;27;20097;-59
2021/10/30 09:31:38;;;;;;;4.82;4.43;;;17.70;87.50;;;;;;4226152;27;20052;-59
2021/10/30 09:34:02;;;;;;;5.47;4.70;;;17.80;86.80;;;;;;4226279;27;20051;-59
2021/10/30 09:36:29;;;;;;;4.80;4.38;;;17.90;86.60;;;;;;4226185;27;20584;-59
2021/10/30 09:38:57;;;;;;;4.18;3.80;;;18.00;85.80;;;;;;4225576;27;20043;-59
2021/10/30 09:41:25;;;;;;;6.57;3.85;;;18.00;85.40;;;;;;4226075;27;20060;-56
2021/10/30 09:43:56;;;;;;;4.15;3.85;;;18.00;85.80;;;;;;4225903;27;20055;-57
2021/10/30 09:46:18;;;;;;;3.75;3.50;;;18.10;86.60;;;;;;4210543;27;20060;-58
2021/10/30 09:48:41;;;;;;;4.95;4.45;;;18.20;85.80;;;;;;4208299;28;20514;-59
2021/10/30 09:51:03;;;;;;;4.53;4.05;;;18.30;85.40;;;;;;4209038;28;20043;-58
2021/10/30 09:53:34;;;;;;;3.53;3.33;;;18.30;85.10;;;;;;4209192;28;20129;-58
2021/10/30 09:56:05;;;;;;;3.33;3.13;;;18.30;84.90;;;;;;4208768;28;20146;-57
2021/10/30 09:58:35;;;;;;;3.78;3.33;;;18.30;86.00;;;;;;4223448;27;20296;-58
2021/10/30 10:01:12;;;;;;;3.60;3.30;;;18.30;85.20;;;;;;4218311;27;20040;-58
2021/10/30 10:03:34;;;;;;;3.45;3.15;;;18.20;85.40;;;;;;4208630;28;20044;-57
2021/10/30 10:05:57;;;;;;;3.80;3.13;;;18.30;85.50;;;;;;4203609;27;20117;-59
2021/10/30 10:08:20;;;;;;;3.40;3.10;;;18.30;85.30;;;;;;4208986;27;20047;-58
2021/10/30 10:10:42;;;;;;;3.33;2.95;;;18.30;85.10;;;;;;4208424;27;20044;-59
2021/10/30 10:13:06;;;;;;;3.92;3.63;;;18.30;85.00;;;;;;4208370;27;20063;-59
2021/10/30 10:15:28;;;;;;;3.75;3.45;;;18.30;85.20;;;;;;4208673;27;20145;-61
2021/10/30 10:17:51;;;;;;;5.13;3.38;;;18.30;85.30;;;;;;4208455;27;20047;-58
2021/10/30 10:20:14;;;;;;;3.65;3.33;;;18.30;85.50;;;;;;4208363;27;20059;-58
2021/10/30 10:22:37;;;;;;;3.83;3.50;;;18.20;85.60;;;;;;4208706;28;20036;-57
2021/10/30 10:25:24;;;;;;;3.53;3.10;;;18.20;85.90;;;;;;4208629;28;20044;-58
2021/10/30 10:27:46;;;;;;;3.25;3.05;;;18.10;86.10;;;;;;4208395;28;20090;-58
2021/10/30 10:30:10;;;;;;;3.38;3.17;;;18.00;86.50;;;;;;4208491;28;20048;-58
2021/10/30 10:32:32;;;;;;;7.28;3.58;;;17.90;87.30;;;;;;4208500;28;20533;-59
2021/10/30 10:35:05;;;;;;;4.25;3.00;;;17.90;86.90;;;;;;4208354;28;20481;-58
2021/10/30 10:37:27;;;;;;;4.18;3.80;;;17.80;87.00;;;;;;4208114;28;20075;-59
2021/10/30 10:39:52;;;;;;;3.70;3.40;;;17.80;87.50;;;;;;4205169;28;20436;-59
2021/10/30 10:42:16;;;;;;;4.57;3.50;;;17.70;87.70;;;;;;4207992;27;20048;-60
2021/10/30 10:45:00;;;;;;;3.85;3.47;;;17.70;87.90;;;;;;4208142;27;20059;-60
2021/10/30 10:48:05;;;;;;;4.63;3.50;;;17.60;88.20;;;;;;4197520;27;20520;-59
2021/10/30 10:50:35;;;;;;;3.90;3.60;;;17.60;88.50;;;;;;4224461;27;20047;-60
2021/10/30 10:53:34;;;;;;;3.97;3.50;;;17.50;88.80;;;;;;4210289;27;20036;-59
2021/10/30 10:56:11;;;;;;;3.97;3.58;;;17.60;88.80;;;;;;4211229;27;20040;-59
2021/10/30 10:59:02;;;;;;;3.55;3.35;;;17.80;88.30;;;;;;4219609;27;20047;-60
2021/10/30 11:01:24;;;;;;;3.45;3.25;;;17.80;87.70;;;;;;4221524;28;20469;-59
2021/10/30 11:03:47;;;;;;;3.92;3.72;;;17.90;88.00;;;;;;4223058;27;20116;-58
2021/10/30 11:06:11;;;;;;;3.80;3.53;;;17.90;87.80;;;;;;4224729;27;20054;-59
2021/10/30 11:08:36;;;;;;;3.90;3.60;;;17.90;87.50;;;;;;4219919;28;20116;-60
2021/10/30 11:11:25;;;;;;;3.58;3.25;;;17.90;88.60;;;;;;4224721;27;20130;-58
2021/10/30 11:13:57;;;;;;;3.60;3.30;;;17.90;87.70;;;;;;4211420;28;20066;-59
2021/10/30 11:16:25;;;;;;;3.15;2.83;;;17.80;87.70;;;;;;4224651;27;20100;-60
2021/10/30 11:19:00;;;;;;;3.30;3.05;;;17.80;87.90;;;;;;4210041;27;20422;-59
2021/10/30 11:21:34;;;;;;;3.58;3.10;;;17.70;88.20;;;;;;4207385;28;20050;-60
2021/10/30 11:23:57;;;;;;;3.65;3.35;;;17.70;88.40;;;;;;4222662;28;20075;-59
2021/10/30 11:26:26;;;;;;;3.42;3.10;;;17.70;88.80;;;;;;4224575;28;20476;-59
2021/10/30 11:28:51;;;;;;;5.45;3.50;;;17.80;88.70;;;;;;4224195;28;20612;-60
2021/10/30 11:31:15;;;;;;;3.22;2.92;;;18.00;88.20;;;;;;4224068;27;20058;-59
2021/10/30 11:33:39;;;;;;;2.90;2.70;;;18.10;87.70;;;;;;4224100;27;20092;-59
2021/10/30 11:36:04;;;;;;;3.13;2.83;;;18.20;87.30;;;;;;4252099;27;20404;-59
2021/10/30 11:38:28;;;;;;;3.05;2.85;;;18.20;87.00;;;;;;4206161;28;20105;-59
2021/10/30 11:40:56;;;;;;;3.33;3.13;;;18.20;86.90;;;;;;4222055;27;20119;-59
2021/10/30 11:43:18;;;;;;;2.92;2.83;;;18.20;87.00;;;;;;4224113;27;20088;-59
2021/10/30 11:45:40;;;;;;;3.33;2.97;;;18.20;87.00;;;;;;4207945;28;20173;-59
2021/10/30 11:48:02;;;;;;;7.15;3.55;;;18.10;86.90;;;;;;4221881;27;20379;-59
2021/10/30 11:50:25;;;;;;;4.13;3.53;;;18.10;87.40;;;;;;4224601;27;20063;-60
2021/10/30 11:52:50;;;;;;;3.55;3.25;;;18.10;87.90;;;;;;4224498;27;20047;-59
2021/10/30 11:55:20;;;;;;;2.92;2.72;;;18.00;88.10;;;;;;4224556;27;20105;-59
2021/10/30 11:57:59;;;;;;;3.67;3.45;;;18.00;88.30;;;;;;4207277;28;20047;-59
2021/10/30 12:00:23;;;;;;;3.40;3.15;;;17.90;88.50;;;;;;4215297;27;20083;-60
2021/10/30 12:03:01;;;;;;;3.47;3.20;;;17.90;88.70;;;;;;4223549;27;20670;-60
2021/10/30 12:05:33;;;;;;;3.80;3.45;;;17.80;88.90;;;;;;4208600;27;20071;-60
2021/10/30 12:07:55;;;;;;;3.85;3.33;;;17.80;89.30;;;;;;4221163;27;20577;-59
2021/10/30 12:10:24;;;;;;;3.22;2.90;;;17.70;89.30;;;;;;4221478;27;20096;-59
2021/10/30 12:12:46;;;;;;;5.30;3.22;;;17.70;89.50;;;;;;4224906;27;20052;-60
2021/10/30 12:15:09;;;;;;;3.60;3.40;;;17.60;89.80;;;;;;4226313;27;20048;-59
2021/10/30 12:17:32;;;;;;;3.60;3.30;;;17.50;90.00;;;;;;4226619;27;20100;-59
2021/10/30 12:19:56;;;;;;;3.28;3.08;;;17.50;90.00;;;;;;4227142;27;20054;-61
2021/10/30 12:22:21;;;;;;;3.90;3.58;;;17.50;90.10;;;;;;4224199;27;20500;-59
2021/10/30 12:24:46;;;;;;;3.40;3.20;;;17.50;90.20;;;;;;4225991;27;20058;-59
2021/10/30 12:27:09;;;;;;;3.20;3.00;;;17.40;90.20;;;;;;4225297;27;20113;-59
2021/10/30 12:29:32;;;;;;;5.30;3.50;;;17.40;90.30;;;;;;4226582;27;20134;-59